sensor_id;sensor_type;location;lat;lon;timestamp;P1;P2;P0
46885;PMS5003;32622;48.202;11.326;2022-08-19T00:01:50;18;18;
46885;PMS5003;32622;48.202;11.326;2022-08-19T00:04:00;18;18;
46885;PMS5003;32622;48.202;11.326;2022-08-19T00:06:08;18;18;
46885;PMS5003;32622;48.202;11.326;2022-08-19T00:08:12;18;18;
46885;PMS5003;32622;48.202;11.326;2022-08-19T00:10:16;18;18;
46885;PMS5003;32622;48.202;11.326;2022-08-19T00:12:22;17;17;
46885;PMS5003;32622;48.202;11.326;2022-08-19T00:14:26;17;17;
46885;PMS5003;32622;48.202;11.326;2022-08-19T00:16:32;17;17;
46885;PMS5003;32622;48.202;11.326;2022-08-19T00:18:37;17;17;
46885;PMS5003;32622;48.202;11.326;2022-08-19T00:20:40;17;17;
46885;PMS5003;32622;48.202;11.326;2022-08-19T00:22:44;17;17;
46885;PMS5003;32622;48.202;11.326;2022-08-19T00:24:49;18;18;
46885;PMS5003;32622;48.202;11.326;2022-08-19T00:26:54;18;18;
46885;PMS5003;32622;48.202;11.326;2022-08-19T00:28:58;18;18;
46885;PMS5003;32622;48.202;11.326;2022-08-19T00:31:06;20;18;
46885;PMS5003;32622;48.202;11.326;2022-08-19T00:33:12;20;18;
46885;PMS5003;32622;48.202;11.326;2022-08-19T00:35:16;20;18;
46885;PMS5003;32622;48.202;11.326;2022-08-19T00:37:19;20;19;
46885;PMS5003;32622;48.202;11.326;2022-08-19T00:39:24;20;19;
46885;PMS5003;32622;48.202;11.326;2022-08-19T00:41:28;20;19;
46885;PMS5003;32622;48.202;11.326;2022-08-19T00:43:33;18;17;
46885;PMS5003;32622;48.202;11.326;2022-08-19T00:45:37;18;17;
46885;PMS5003;32622;48.202;11.326;2022-08-19T00:47:42;18;17;
46885;PMS5003;32622;48.202;11.326;2022-08-19T00:49:49;18;17;
46885;PMS5003;32622;48.202;11.326;2022-08-19T00:51:56;18;17;
46885;PMS5003;32622;48.202;11.326;2022-08-19T00:54:04;18;17;
46885;PMS5003;32622;48.202;11.326;2022-08-19T00:56:09;18;17;
46885;PMS5003;32622;48.202;11.326;2022-08-19T00:58:15;18;17;
46885;PMS5003;32622;48.202;11.326;2022-08-19T01:00:21;18;17;
46885;PMS5003;32622;48.202;11.326;2022-08-19T01:02:28;18;17;
46885;PMS5003;32622;48.202;11.326;2022-08-19T01:04:33;18;17;
46885;PMS5003;32622;48.202;11.326;2022-08-19T01:06:38;18;17;
46885;PMS5003;32622;48.202;11.326;2022-08-19T01:08:44;18;17;
46885;PMS5003;32622;48.202;11.326;2022-08-19T01:10:49;18;17;
46885;PMS5003;32622;48.202;11.326;2022-08-19T01:12:57;18;17;
46885;PMS5003;32622;48.202;11.326;2022-08-19T01:15:04;19;18;
46885;PMS5003;32622;48.202;11.326;2022-08-19T01:17:11;19;18;
46885;PMS5003;32622;48.202;11.326;2022-08-19T01:19:17;19;18;
46885;PMS5003;32622;48.202;11.326;2022-08-19T01:21:26;19;18;
46885;PMS5003;32622;48.202;11.326;2022-08-19T01:23:36;19;18;
46885;PMS5003;32622;48.202;11.326;2022-08-19T01:25:42;19;18;
46885;PMS5003;32622;48.202;11.326;2022-08-19T01:27:50;20;17;
46885;PMS5003;32622;48.202;11.326;2022-08-19T01:29:55;20;17;
46885;PMS5003;32622;48.202;11.326;2022-08-19T01:31:59;20;17;
46885;PMS5003;32622;48.202;11.326;2022-08-19T01:34:04;20;18;
46885;PMS5003;32622;48.202;11.326;2022-08-19T01:36:11;20;18;
46885;PMS5003;32622;48.202;11.326;2022-08-19T01:38:20;20;18;
46885;PMS5003;32622;48.202;11.326;2022-08-19T01:40:27;19;18;
46885;PMS5003;32622;48.202;11.326;2022-08-19T01:42:33;19;18;
46885;PMS5003;32622;48.202;11.326;2022-08-19T01:44:37;19;18;
46885;PMS5003;32622;48.202;11.326;2022-08-19T01:46:43;20;18;
46885;PMS5003;32622;48.202;11.326;2022-08-19T01:48:47;20;18;
46885;PMS5003;32622;48.202;11.326;2022-08-19T01:50:52;20;18;
46885;PMS5003;32622;48.202;11.326;2022-08-19T01:52:58;20;19;
46885;PMS5003;32622;48.202;11.326;2022-08-19T01:55:08;20;19;
46885;PMS5003;32622;48.202;11.326;2022-08-19T01:57:15;20;19;
46885;PMS5003;32622;48.202;11.326;2022-08-19T01:59:22;20;19;
46885;PMS5003;32622;48.202;11.326;2022-08-19T02:01:29;20;19;
46885;PMS5003;32622;48.202;11.326;2022-08-19T02:03:35;20;19;
46885;PMS5003;32622;48.202;11.326;2022-08-19T02:05:41;20;19;
46885;PMS5003;32622;48.202;11.326;2022-08-19T02:07:47;20;19;
46885;PMS5003;32622;48.202;11.326;2022-08-19T02:09:54;20;19;
46885;PMS5003;32622;48.202;11.326;2022-08-19T02:12:00;20;19;
46885;PMS5003;32622;48.202;11.326;2022-08-19T02:14:14;20;19;
46885;PMS5003;32622;48.202;11.326;2022-08-19T02:16:23;20;19;
46885;PMS5003;32622;48.202;11.326;2022-08-19T02:18:28;20;18;
46885;PMS5003;32622;48.202;11.326;2022-08-19T02:20:33;20;18;
46885;PMS5003;32622;48.202;11.326;2022-08-19T02:22:38;20;18;
46885;PMS5003;32622;48.202;11.326;2022-08-19T02:24:42;19;18;
46885;PMS5003;32622;48.202;11.326;2022-08-19T02:26:45;19;18;
46885;PMS5003;32622;48.202;11.326;2022-08-19T02:28:51;19;18;
46885;PMS5003;32622;48.202;11.326;2022-08-19T02:30:55;18;18;
46885;PMS5003;32622;48.202;11.326;2022-08-19T02:33:00;18;18;
46885;PMS5003;32622;48.202;11.326;2022-08-19T02:35:03;18;18;
46885;PMS5003;32622;48.202;11.326;2022-08-19T02:37:09;18;18;
46885;PMS5003;32622;48.202;11.326;2022-08-19T02:39:13;18;18;
46885;PMS5003;32622;48.202;11.326;2022-08-19T02:41:18;18;18;
46885;PMS5003;32622;48.202;11.326;2022-08-19T02:43:24;18;18;
46885;PMS5003;32622;48.202;11.326;2022-08-19T02:45:31;18;18;
46885;PMS5003;32622;48.202;11.326;2022-08-19T02:47:37;18;18;
46885;PMS5003;32622;48.202;11.326;2022-08-19T02:49:43;18;18;
46885;PMS5003;32622;48.202;11.326;2022-08-19T02:51:48;18;18;
46885;PMS5003;32622;48.202;11.326;2022-08-19T02:53:52;18;18;
46885;PMS5003;32622;48.202;11.326;2022-08-19T02:55:56;19;19;
46885;PMS5003;32622;48.202;11.326;2022-08-19T02:58:08;19;19;
46885;PMS5003;32622;48.202;11.326;2022-08-19T03:00:12;19;19;
46885;PMS5003;32622;48.202;11.326;2022-08-19T03:02:16;18;18;
46885;PMS5003;32622;48.202;11.326;2022-08-19T03:04:20;18;18;
46885;PMS5003;32622;48.202;11.326;2022-08-19T03:06:24;18;18;
46885;PMS5003;32622;48.202;11.326;2022-08-19T03:08:30;18;18;
46885;PMS5003;32622;48.202;11.326;2022-08-19T03:10:39;18;18;
46885;PMS5003;32622;48.202;11.326;2022-08-19T03:12:46;18;18;
46885;PMS5003;32622;48.202;11.326;2022-08-19T03:14:49;19;19;
46885;PMS5003;32622;48.202;11.326;2022-08-19T03:16:53;19;19;
46885;PMS5003;32622;48.202;11.326;2022-08-19T03:18:57;19;19;
46885;PMS5003;32622;48.202;11.326;2022-08-19T03:21:01;18;18;
46885;PMS5003;32622;48.202;11.326;2022-08-19T03:25:12;18;18;
46885;PMS5003;32622;48.202;11.326;2022-08-19T03:27:16;18;18;
46885;PMS5003;32622;48.202;11.326;2022-08-19T03:29:20;18;18;
46885;PMS5003;32622;48.202;11.326;2022-08-19T03:31:24;18;18;
46885;PMS5003;32622;48.202;11.326;2022-08-19T03:33:30;19;19;
46885;PMS5003;32622;48.202;11.326;2022-08-19T03:35:35;19;19;
46885;PMS5003;32622;48.202;11.326;2022-08-19T03:37:39;19;19;
46885;PMS5003;32622;48.202;11.326;2022-08-19T03:39:45;18;18;
46885;PMS5003;32622;48.202;11.326;2022-08-19T03:41:48;18;18;
46885;PMS5003;32622;48.202;11.326;2022-08-19T03:43:54;18;18;
46885;PMS5003;32622;48.202;11.326;2022-08-19T03:46:02;16;16;
46885;PMS5003;32622;48.202;11.326;2022-08-19T03:48:10;16;16;
46885;PMS5003;32622;48.202;11.326;2022-08-19T03:50:13;16;16;
46885;PMS5003;32622;48.202;11.326;2022-08-19T03:52:18;16;16;
46885;PMS5003;32622;48.202;11.326;2022-08-19T03:54:22;17;17;
46885;PMS5003;32622;48.202;11.326;2022-08-19T03:56:28;17;17;
46885;PMS5003;32622;48.202;11.326;2022-08-19T03:58:32;17;17;
46885;PMS5003;32622;48.202;11.326;2022-08-19T04:00:36;17;17;
46885;PMS5003;32622;48.202;11.326;2022-08-19T04:02:40;17;17;
46885;PMS5003;32622;48.202;11.326;2022-08-19T04:04:44;18;18;
46885;PMS5003;32622;48.202;11.326;2022-08-19T04:06:51;18;18;
46885;PMS5003;32622;48.202;11.326;2022-08-19T04:08:56;18;18;
46885;PMS5003;32622;48.202;11.326;2022-08-19T04:11:06;18;18;
46885;PMS5003;32622;48.202;11.326;2022-08-19T04:13:11;18;18;
46885;PMS5003;32622;48.202;11.326;2022-08-19T04:15:15;18;18;
46885;PMS5003;32622;48.202;11.326;2022-08-19T04:17:20;18;18;
46885;PMS5003;32622;48.202;11.326;2022-08-19T04:19:33;18;18;
46885;PMS5003;32622;48.202;11.326;2022-08-19T04:21:38;18;18;
46885;PMS5003;32622;48.202;11.326;2022-08-19T04:23:42;18;18;
46885;PMS5003;32622;48.202;11.326;2022-08-19T04:25:45;18;18;
46885;PMS5003;32622;48.202;11.326;2022-08-19T04:27:48;18;18;
46885;PMS5003;32622;48.202;11.326;2022-08-19T04:29:52;18;18;
46885;PMS5003;32622;48.202;11.326;2022-08-19T04:31:57;18;18;
46885;PMS5003;32622;48.202;11.326;2022-08-19T04:34:03;18;18;
46885;PMS5003;32622;48.202;11.326;2022-08-19T04:36:08;18;18;
46885;PMS5003;32622;48.202;11.326;2022-08-19T04:38:20;18;18;
46885;PMS5003;32622;48.202;11.326;2022-08-19T04:40:25;18;18;
46885;PMS5003;32622;48.202;11.326;2022-08-19T04:42:29;18;18;
46885;PMS5003;32622;48.202;11.326;2022-08-19T04:44:34;18;18;
46885;PMS5003;32622;48.202;11.326;2022-08-19T04:46:39;18;18;
46885;PMS5003;32622;48.202;11.326;2022-08-19T04:48:42;18;18;
46885;PMS5003;32622;48.202;11.326;2022-08-19T04:50:47;18;18;
46885;PMS5003;32622;48.202;11.326;2022-08-19T04:52:51;18;18;
46885;PMS5003;32622;48.202;11.326;2022-08-19T04:54:54;18;18;
46885;PMS5003;32622;48.202;11.326;2022-08-19T04:56:59;18;18;
46885;PMS5003;32622;48.202;11.326;2022-08-19T04:59:02;18;18;
46885;PMS5003;32622;48.202;11.326;2022-08-19T05:01:06;17;17;
46885;PMS5003;32622;48.202;11.326;2022-08-19T05:03:11;17;17;
46885;PMS5003;32622;48.202;11.326;2022-08-19T05:05:15;17;17;
46885;PMS5003;32622;48.202;11.326;2022-08-19T05:07:19;18;18;
46885;PMS5003;32622;48.202;11.326;2022-08-19T05:09:24;18;18;
46885;PMS5003;32622;48.202;11.326;2022-08-19T05:11:28;18;18;
46885;PMS5003;32622;48.202;11.326;2022-08-19T05:13:34;17;17;
46885;PMS5003;32622;48.202;11.326;2022-08-19T05:15:38;17;17;
46885;PMS5003;32622;48.202;11.326;2022-08-19T05:17:43;17;17;
46885;PMS5003;32622;48.202;11.326;2022-08-19T05:19:47;16;16;
46885;PMS5003;32622;48.202;11.326;2022-08-19T05:21:51;16;16;
46885;PMS5003;32622;48.202;11.326;2022-08-19T05:23:57;16;16;
46885;PMS5003;32622;48.202;11.326;2022-08-19T05:26:00;17;17;
46885;PMS5003;32622;48.202;11.326;2022-08-19T05:28:04;17;17;
46885;PMS5003;32622;48.202;11.326;2022-08-19T05:30:08;17;17;
46885;PMS5003;32622;48.202;11.326;2022-08-19T05:32:13;17;17;
46885;PMS5003;32622;48.202;11.326;2022-08-19T05:34:17;17;17;
46885;PMS5003;32622;48.202;11.326;2022-08-19T05:36:24;17;17;
46885;PMS5003;32622;48.202;11.326;2022-08-19T05:38:29;17;17;
46885;PMS5003;32622;48.202;11.326;2022-08-19T05:40:33;17;17;
46885;PMS5003;32622;48.202;11.326;2022-08-19T05:42:38;17;17;
46885;PMS5003;32622;48.202;11.326;2022-08-19T05:44:43;17;17;
46885;PMS5003;32622;48.202;11.326;2022-08-19T05:46:48;17;17;
46885;PMS5003;32622;48.202;11.326;2022-08-19T05:48:56;17;17;
46885;PMS5003;32622;48.202;11.326;2022-08-19T05:51:05;18;18;
46885;PMS5003;32622;48.202;11.326;2022-08-19T05:53:09;18;18;
46885;PMS5003;32622;48.202;11.326;2022-08-19T05:55:12;18;18;
46885;PMS5003;32622;48.202;11.326;2022-08-19T05:57:15;17;17;
46885;PMS5003;32622;48.202;11.326;2022-08-19T05:59:19;17;17;
46885;PMS5003;32622;48.202;11.326;2022-08-19T06:01:24;17;17;
46885;PMS5003;32622;48.202;11.326;2022-08-19T06:03:28;18;18;
46885;PMS5003;32622;48.202;11.326;2022-08-19T06:05:32;18;18;
46885;PMS5003;32622;48.202;11.326;2022-08-19T06:07:36;18;18;
46885;PMS5003;32622;48.202;11.326;2022-08-19T06:09:43;17;17;
46885;PMS5003;32622;48.202;11.326;2022-08-19T06:11:48;17;17;
46885;PMS5003;32622;48.202;11.326;2022-08-19T06:13:54;17;17;
46885;PMS5003;32622;48.202;11.326;2022-08-19T06:15:58;18;18;
46885;PMS5003;32622;48.202;11.326;2022-08-19T06:18:02;19;19;
46885;PMS5003;32622;48.202;11.326;2022-08-19T06:20:07;19;19;
46885;PMS5003;32622;48.202;11.326;2022-08-19T06:22:15;19;19;
46885;PMS5003;32622;48.202;11.326;2022-08-19T06:24:21;19;19;
46885;PMS5003;32622;48.202;11.326;2022-08-19T06:26:27;19;19;
46885;PMS5003;32622;48.202;11.326;2022-08-19T06:28:31;20;20;
46885;PMS5003;32622;48.202;11.326;2022-08-19T06:30:35;20;20;
46885;PMS5003;32622;48.202;11.326;2022-08-19T06:32:39;20;20;
46885;PMS5003;32622;48.202;11.326;2022-08-19T06:34:43;19;19;
46885;PMS5003;32622;48.202;11.326;2022-08-19T06:36:50;19;19;
46885;PMS5003;32622;48.202;11.326;2022-08-19T06:38:54;19;19;
46885;PMS5003;32622;48.202;11.326;2022-08-19T06:41:00;19;19;
46885;PMS5003;32622;48.202;11.326;2022-08-19T06:43:05;19;19;
46885;PMS5003;32622;48.202;11.326;2022-08-19T06:45:08;19;19;
46885;PMS5003;32622;48.202;11.326;2022-08-19T06:47:15;20;20;
46885;PMS5003;32622;48.202;11.326;2022-08-19T06:49:21;20;20;
46885;PMS5003;32622;48.202;11.326;2022-08-19T06:51:26;20;20;
46885;PMS5003;32622;48.202;11.326;2022-08-19T06:53:29;20;20;
46885;PMS5003;32622;48.202;11.326;2022-08-19T06:55:33;20;20;
46885;PMS5003;32622;48.202;11.326;2022-08-19T06:57:37;20;20;
46885;PMS5003;32622;48.202;11.326;2022-08-19T06:59:41;20;20;
46885;PMS5003;32622;48.202;11.326;2022-08-19T07:01:46;20;20;
46885;PMS5003;32622;48.202;11.326;2022-08-19T07:03:50;20;20;
46885;PMS5003;32622;48.202;11.326;2022-08-19T07:05:53;20;20;
46885;PMS5003;32622;48.202;11.326;2022-08-19T07:07:56;20;20;
46885;PMS5003;32622;48.202;11.326;2022-08-19T07:10:00;20;20;
46885;PMS5003;32622;48.202;11.326;2022-08-19T07:12:09;20;20;
46885;PMS5003;32622;48.202;11.326;2022-08-19T07:14:15;20;20;
46885;PMS5003;32622;48.202;11.326;2022-08-19T07:16:21;20;20;
46885;PMS5003;32622;48.202;11.326;2022-08-19T07:18:26;21;21;
46885;PMS5003;32622;48.202;11.326;2022-08-19T07:20:29;21;21;
46885;PMS5003;32622;48.202;11.326;2022-08-19T07:22:34;21;21;
46885;PMS5003;32622;48.202;11.326;2022-08-19T07:24:41;22;21;
46885;PMS5003;32622;48.202;11.326;2022-08-19T07:26:45;22;21;
46885;PMS5003;32622;48.202;11.326;2022-08-19T07:28:50;22;21;
46885;PMS5003;32622;48.202;11.326;2022-08-19T07:30:53;21;19;
46885;PMS5003;32622;48.202;11.326;2022-08-19T07:32:56;21;19;
46885;PMS5003;32622;48.202;11.326;2022-08-19T07:35:00;21;19;
46885;PMS5003;32622;48.202;11.326;2022-08-19T07:37:04;20;19;
46885;PMS5003;32622;48.202;11.326;2022-08-19T07:39:09;20;19;
46885;PMS5003;32622;48.202;11.326;2022-08-19T07:41:18;20;19;
46885;PMS5003;32622;48.202;11.326;2022-08-19T07:43:25;20;19;
46885;PMS5003;32622;48.202;11.326;2022-08-19T07:45:31;20;19;
46885;PMS5003;32622;48.202;11.326;2022-08-19T07:47:40;20;19;
46885;PMS5003;32622;48.202;11.326;2022-08-19T07:49:45;21;18;
46885;PMS5003;32622;48.202;11.326;2022-08-19T07:51:49;21;18;
46885;PMS5003;32622;48.202;11.326;2022-08-19T07:53:55;21;18;
46885;PMS5003;32622;48.202;11.326;2022-08-19T07:55:59;20;18;
46885;PMS5003;32622;48.202;11.326;2022-08-19T07:58:05;20;18;
46885;PMS5003;32622;48.202;11.326;2022-08-19T08:00:11;20;18;
46885;PMS5003;32622;48.202;11.326;2022-08-19T08:02:17;20;18;
46885;PMS5003;32622;48.202;11.326;2022-08-19T08:04:22;20;18;
46885;PMS5003;32622;48.202;11.326;2022-08-19T08:06:27;20;18;
46885;PMS5003;32622;48.202;11.326;2022-08-19T08:08:33;21;19;
46885;PMS5003;32622;48.202;11.326;2022-08-19T08:10:39;21;19;
46885;PMS5003;32622;48.202;11.326;2022-08-19T08:12:43;21;19;
46885;PMS5003;32622;48.202;11.326;2022-08-19T08:14:50;21;19;
46885;PMS5003;32622;48.202;11.326;2022-08-19T08:16:57;21;19;
46885;PMS5003;32622;48.202;11.326;2022-08-19T08:19:03;21;19;
46885;PMS5003;32622;48.202;11.326;2022-08-19T08:21:09;21;18;
46885;PMS5003;32622;48.202;11.326;2022-08-19T08:23:13;21;18;
46885;PMS5003;32622;48.202;11.326;2022-08-19T08:25:19;21;18;
46885;PMS5003;32622;48.202;11.326;2022-08-19T08:27:23;19;18;
46885;PMS5003;32622;48.202;11.326;2022-08-19T08:29:29;19;18;
46885;PMS5003;32622;48.202;11.326;2022-08-19T08:31:33;19;18;
46885;PMS5003;32622;48.202;11.326;2022-08-19T08:33:37;18;17;
46885;PMS5003;32622;48.202;11.326;2022-08-19T08:35:41;18;17;
46885;PMS5003;32622;48.202;11.326;2022-08-19T08:37:44;18;17;
46885;PMS5003;32622;48.202;11.326;2022-08-19T08:39:47;18;17;
46885;PMS5003;32622;48.202;11.326;2022-08-19T08:41:51;19;18;
46885;PMS5003;32622;48.202;11.326;2022-08-19T08:43:58;19;18;
46885;PMS5003;32622;48.202;11.326;2022-08-19T08:46:07;19;18;
46885;PMS5003;32622;48.202;11.326;2022-08-19T08:48:14;19;18;
46885;PMS5003;32622;48.202;11.326;2022-08-19T08:50:23;19;18;
46885;PMS5003;32622;48.202;11.326;2022-08-19T08:52:32;19;19;
46885;PMS5003;32622;48.202;11.326;2022-08-19T08:54:39;19;19;
46885;PMS5003;32622;48.202;11.326;2022-08-19T08:56:45;19;19;
46885;PMS5003;32622;48.202;11.326;2022-08-19T08:59:02;19;19;
46885;PMS5003;32622;48.202;11.326;2022-08-19T09:01:09;19;19;
46885;PMS5003;32622;48.202;11.326;2022-08-19T09:03:15;19;19;
46885;PMS5003;32622;48.202;11.326;2022-08-19T09:05:21;19;19;
46885;PMS5003;32622;48.202;11.326;2022-08-19T09:07:31;19;19;
46885;PMS5003;32622;48.202;11.326;2022-08-19T09:09:46;19;19;
46885;PMS5003;32622;48.202;11.326;2022-08-19T09:11:55;18;18;
46885;PMS5003;32622;48.202;11.326;2022-08-19T09:14:08;18;18;
46885;PMS5003;32622;48.202;11.326;2022-08-19T09:16:21;18;18;
46885;PMS5003;32622;48.202;11.326;2022-08-19T09:18:26;18;18;
46885;PMS5003;32622;48.202;11.326;2022-08-19T09:20:44;18;18;
46885;PMS5003;32622;48.202;11.326;2022-08-19T09:22:49;18;18;
46885;PMS5003;32622;48.202;11.326;2022-08-19T09:24:53;18;18;
46885;PMS5003;32622;48.202;11.326;2022-08-19T09:26:57;18;18;
46885;PMS5003;32622;48.202;11.326;2022-08-19T09:29:01;18;18;
46885;PMS5003;32622;48.202;11.326;2022-08-19T09:31:06;19;19;
46885;PMS5003;32622;48.202;11.326;2022-08-19T09:33:10;19;19;
46885;PMS5003;32622;48.202;11.326;2022-08-19T09:35:16;19;19;
46885;PMS5003;32622;48.202;11.326;2022-08-19T09:37:20;19;19;
46885;PMS5003;32622;48.202;11.326;2022-08-19T09:39:25;19;19;
46885;PMS5003;32622;48.202;11.326;2022-08-19T09:41:29;19;19;
46885;PMS5003;32622;48.202;11.326;2022-08-19T09:43:33;19;19;
46885;PMS5003;32622;48.202;11.326;2022-08-19T09:45:36;19;19;
46885;PMS5003;32622;48.202;11.326;2022-08-19T09:47:39;19;19;
46885;PMS5003;32622;48.202;11.326;2022-08-19T09:49:43;19;19;
46885;PMS5003;32622;48.202;11.326;2022-08-19T09:51:46;19;19;
46885;PMS5003;32622;48.202;11.326;2022-08-19T09:53:52;19;19;
46885;PMS5003;32622;48.202;11.326;2022-08-19T09:55:56;18;18;
46885;PMS5003;32622;48.202;11.326;2022-08-19T09:58:01;18;18;
46885;PMS5003;32622;48.202;11.326;2022-08-19T10:00:05;18;18;
46885;PMS5003;32622;48.202;11.326;2022-08-19T10:02:11;18;18;
46885;PMS5003;32622;48.202;11.326;2022-08-19T10:04:14;18;18;
46885;PMS5003;32622;48.202;11.326;2022-08-19T10:06:19;18;18;
46885;PMS5003;32622;48.202;11.326;2022-08-19T10:08:25;20;18;
46885;PMS5003;32622;48.202;11.326;2022-08-19T10:10:35;20;18;
46885;PMS5003;32622;48.202;11.326;2022-08-19T10:12:41;20;18;
46885;PMS5003;32622;48.202;11.326;2022-08-19T10:14:47;19;18;
46885;PMS5003;32622;48.202;11.326;2022-08-19T10:16:53;19;18;
46885;PMS5003;32622;48.202;11.326;2022-08-19T10:18:56;19;18;
46885;PMS5003;32622;48.202;11.326;2022-08-19T10:21:08;20;18;
46885;PMS5003;32622;48.202;11.326;2022-08-19T10:23:13;20;18;
46885;PMS5003;32622;48.202;11.326;2022-08-19T10:25:17;20;18;
46885;PMS5003;32622;48.202;11.326;2022-08-19T10:27:20;19;17;
46885;PMS5003;32622;48.202;11.326;2022-08-19T10:29:23;19;17;
46885;PMS5003;32622;48.202;11.326;2022-08-19T10:31:27;19;17;
46885;PMS5003;32622;48.202;11.326;2022-08-19T10:33:32;18;17;
46885;PMS5003;32622;48.202;11.326;2022-08-19T10:35:41;18;17;
46885;PMS5003;32622;48.202;11.326;2022-08-19T10:37:44;18;17;
46885;PMS5003;32622;48.202;11.326;2022-08-19T10:39:49;18;17;
46885;PMS5003;32622;48.202;11.326;2022-08-19T10:41:53;18;17;
46885;PMS5003;32622;48.202;11.326;2022-08-19T10:43:58;18;17;
46885;PMS5003;32622;48.202;11.326;2022-08-19T10:46:09;19;17;
46885;PMS5003;32622;48.202;11.326;2022-08-19T10:48:13;19;17;
46885;PMS5003;32622;48.202;11.326;2022-08-19T10:50:17;19;17;
46885;PMS5003;32622;48.202;11.326;2022-08-19T10:52:20;19;18;
46885;PMS5003;32622;48.202;11.326;2022-08-19T10:54:24;19;18;
46885;PMS5003;32622;48.202;11.326;2022-08-19T10:56:30;19;18;
46885;PMS5003;32622;48.202;11.326;2022-08-19T10:58:35;18;17;
46885;PMS5003;32622;48.202;11.326;2022-08-19T11:00:40;18;17;
46885;PMS5003;32622;48.202;11.326;2022-08-19T11:02:55;18;17;
46885;PMS5003;32622;48.202;11.326;2022-08-19T11:04:59;19;18;
46885;PMS5003;32622;48.202;11.326;2022-08-19T11:07:03;20;19;
46885;PMS5003;32622;48.202;11.326;2022-08-19T11:09:09;20;19;
46885;PMS5003;32622;48.202;11.326;2022-08-19T11:11:13;19;19;
46885;PMS5003;32622;48.202;11.326;2022-08-19T11:13:17;19;19;
46885;PMS5003;32622;48.202;11.326;2022-08-19T11:15:21;19;19;
46885;PMS5003;32622;48.202;11.326;2022-08-19T11:17:26;20;20;
46885;PMS5003;32622;48.202;11.326;2022-08-19T11:19:29;20;20;
46885;PMS5003;32622;48.202;11.326;2022-08-19T11:21:35;20;20;
46885;PMS5003;32622;48.202;11.326;2022-08-19T11:23:40;19;19;
46885;PMS5003;32622;48.202;11.326;2022-08-19T11:25:45;19;19;
46885;PMS5003;32622;48.202;11.326;2022-08-19T11:27:49;19;19;
46885;PMS5003;32622;48.202;11.326;2022-08-19T11:29:52;19;19;
46885;PMS5003;32622;48.202;11.326;2022-08-19T11:31:55;19;19;
46885;PMS5003;32622;48.202;11.326;2022-08-19T11:34:01;19;19;
46885;PMS5003;32622;48.202;11.326;2022-08-19T11:36:07;19;19;
46885;PMS5003;32622;48.202;11.326;2022-08-19T11:38:11;19;19;
46885;PMS5003;32622;48.202;11.326;2022-08-19T11:40:15;19;19;
46885;PMS5003;32622;48.202;11.326;2022-08-19T11:42:18;20;20;
46885;PMS5003;32622;48.202;11.326;2022-08-19T11:44:23;20;20;
46885;PMS5003;32622;48.202;11.326;2022-08-19T11:46:26;20;20;
46885;PMS5003;32622;48.202;11.326;2022-08-19T11:48:30;20;20;
46885;PMS5003;32622;48.202;11.326;2022-08-19T11:50:33;20;20;
46885;PMS5003;32622;48.202;11.326;2022-08-19T11:52:39;20;20;
46885;PMS5003;32622;48.202;11.326;2022-08-19T11:54:48;21;19;
46885;PMS5003;32622;48.202;11.326;2022-08-19T11:56:56;21;19;
46885;PMS5003;32622;48.202;11.326;2022-08-19T11:59:00;21;19;
46885;PMS5003;32622;48.202;11.326;2022-08-19T12:01:06;20;19;
46885;PMS5003;32622;48.202;11.326;2022-08-19T12:03:12;20;19;
46885;PMS5003;32622;48.202;11.326;2022-08-19T12:05:15;20;19;
46885;PMS5003;32622;48.202;11.326;2022-08-19T12:07:20;20;19;
46885;PMS5003;32622;48.202;11.326;2022-08-19T12:09:24;20;19;
46885;PMS5003;32622;48.202;11.326;2022-08-19T12:11:28;20;19;
46885;PMS5003;32622;48.202;11.326;2022-08-19T12:13:32;20;19;
46885;PMS5003;32622;48.202;11.326;2022-08-19T12:15:36;21;20;
46885;PMS5003;32622;48.202;11.326;2022-08-19T12:17:40;21;19;
46885;PMS5003;32622;48.202;11.326;2022-08-19T12:19:44;20;19;
46885;PMS5003;32622;48.202;11.326;2022-08-19T12:21:47;20;19;
46885;PMS5003;32622;48.202;11.326;2022-08-19T12:23:51;18;18;
46885;PMS5003;32622;48.202;11.326;2022-08-19T12:25:55;19;19;
46885;PMS5003;32622;48.202;11.326;2022-08-19T12:27:59;18;18;
46885;PMS5003;32622;48.202;11.326;2022-08-19T12:30:04;19;19;
46885;PMS5003;32622;48.202;11.326;2022-08-19T12:32:12;20;20;
46885;PMS5003;32622;48.202;11.326;2022-08-19T12:34:15;20;20;
46885;PMS5003;32622;48.202;11.326;2022-08-19T12:36:19;20;20;
46885;PMS5003;32622;48.202;11.326;2022-08-19T12:38:24;20;20;
46885;PMS5003;32622;48.202;11.326;2022-08-19T12:40:28;20;20;
46885;PMS5003;32622;48.202;11.326;2022-08-19T12:42:32;20;20;
46885;PMS5003;32622;48.202;11.326;2022-08-19T12:44:36;19;19;
46885;PMS5003;32622;48.202;11.326;2022-08-19T12:46:42;19;19;
46885;PMS5003;32622;48.202;11.326;2022-08-19T12:48:47;19;19;
46885;PMS5003;32622;48.202;11.326;2022-08-19T12:50:52;20;20;
46885;PMS5003;32622;48.202;11.326;2022-08-19T12:52:58;20;20;
46885;PMS5003;32622;48.202;11.326;2022-08-19T12:55:06;20;20;
46885;PMS5003;32622;48.202;11.326;2022-08-19T12:57:13;20;20;
46885;PMS5003;32622;48.202;11.326;2022-08-19T12:59:17;20;20;
46885;PMS5003;32622;48.202;11.326;2022-08-19T13:01:23;20;20;
46885;PMS5003;32622;48.202;11.326;2022-08-19T13:03:28;20;18;
46885;PMS5003;32622;48.202;11.326;2022-08-19T13:05:34;20;18;
46885;PMS5003;32622;48.202;11.326;2022-08-19T13:07:41;20;18;
46885;PMS5003;32622;48.202;11.326;2022-08-19T13:09:48;20;19;
46885;PMS5003;32622;48.202;11.326;2022-08-19T13:14:23;16;16;
46885;PMS5003;32622;48.202;11.326;2022-08-19T13:16:43;16;16;
46885;PMS5003;32622;48.202;11.326;2022-08-19T13:19:01;16;16;
46885;PMS5003;32622;48.202;11.326;2022-08-19T13:21:10;16;16;
46885;PMS5003;32622;48.202;11.326;2022-08-19T13:23:24;16;16;
46885;PMS5003;32622;48.202;11.326;2022-08-19T13:25:28;16;16;
46885;PMS5003;32622;48.202;11.326;2022-08-19T13:27:33;16;16;
46885;PMS5003;32622;48.202;11.326;2022-08-19T13:29:39;17;17;
46885;PMS5003;32622;48.202;11.326;2022-08-19T13:31:44;17;17;
46885;PMS5003;32622;48.202;11.326;2022-08-19T13:33:50;17;17;
46885;PMS5003;32622;48.202;11.326;2022-08-19T13:35:57;17;17;
46885;PMS5003;32622;48.202;11.326;2022-08-19T13:38:09;17;17;
46885;PMS5003;32622;48.202;11.326;2022-08-19T13:40:16;17;17;
46885;PMS5003;32622;48.202;11.326;2022-08-19T13:57:01;15;15;
46885;PMS5003;32622;48.202;11.326;2022-08-19T13:59:41;18;17;